Time;durP1;ratioP1;P1;durP2;ratioP2;P2;SDS_P1;SDS_P2;PMS_P1;PMS_P2;Temp;Humidity;BMP_temperature;BMP_pressure;BME280_temperature;BME280_humidity;BME280_pressure;Samples;Min_cycle;Max_cycle;Signal;HPM_P1;HPM_P2
2022/10/27 04:55:56;;;;;;;7.22;2.80;;;9.50;99.90;;;;;;5123200;28;20231;-88
2022/10/27 04:58:52;;;;;;;5.60;3.30;;;9.70;99.90;;;;;;5118066;28;20290;-88
2022/10/27 05:17:36;;;;;;;9.02;3.47;;;9.10;99.90;;;;;;5094459;28;20228;-88
2022/10/27 05:20:03;;;;;;;6.28;3.35;;;9.00;99.90;;;;;;5095283;28;20208;-87
2022/10/27 05:22:39;;;;;;;6.90;3.28;;;8.90;99.90;;;;;;5091714;28;20264;-89
2022/10/27 05:25:07;;;;;;;12.70;3.40;;;8.90;99.90;;;;;;5088860;28;20267;-88
2022/10/27 05:27:34;;;;;;;5.50;3.20;;;8.80;99.90;;;;;;5085828;28;20275;-89
2022/10/27 05:30:01;;;;;;;7.68;3.00;;;8.80;99.90;;;;;;5089878;28;20288;-89
2022/10/27 05:35:58;;;;;;;4.80;2.85;;;8.90;99.90;;;;;;5079245;28;20188;-86
2022/10/27 05:38:56;;;;;;;6.38;3.33;;;9.10;99.90;;;;;;5098067;28;20243;-87
2022/10/27 05:41:33;;;;;;;8.02;3.25;;;9.20;99.90;;;;;;5091568;28;20276;-87
2022/10/27 05:44:20;;;;;;;6.53;2.75;;;9.20;99.90;;;;;;5092676;28;20231;-87
2022/10/27 05:46:51;;;;;;;7.22;3.38;;;9.10;99.90;;;;;;5082116;28;20201;-87
2022/10/27 05:49:43;;;;;;;8.20;3.20;;;9.10;99.90;;;;;;5088276;28;20276;-89
2022/10/27 05:52:16;;;;;;;8.93;3.20;;;9.10;99.90;;;;;;5093459;28;20203;-87
2022/10/27 05:54:45;;;;;;;12.13;3.67;;;9.00;99.90;;;;;;5090234;28;20276;-88
2022/10/27 05:57:38;;;;;;;12.30;3.80;;;8.90;99.90;;;;;;5084293;28;20218;-88
2022/10/27 06:00:07;;;;;;;6.10;3.25;;;8.80;99.90;;;;;;5091792;28;20232;-88
2022/10/27 06:06:38;;;;;;;5.53;3.50;;;9.10;99.90;;;;;;5088250;28;20223;-87
2022/10/27 06:09:29;;;;;;;6.22;3.50;;;9.30;99.90;;;;;;5090174;28;20296;-88
2022/10/27 06:11:56;;;;;;;7.53;3.80;;;9.20;99.90;;;;;;5085932;28;20303;-88
2022/10/27 06:14:27;;;;;;;8.73;3.50;;;9.10;99.90;;;;;;5087630;28;20280;-88
2022/10/27 06:16:58;;;;;;;9.88;3.45;;;9.00;99.90;;;;;;5095932;28;20204;-88
2022/10/27 06:23:08;;;;;;;5.53;3.63;;;9.20;99.90;;;;;;5098031;28;20188;-88
2022/10/27 06:25:37;;;;;;;8.98;3.60;;;9.40;99.90;;;;;;5096211;28;20315;-88
2022/10/27 06:28:15;;;;;;;11.25;3.58;;;9.40;99.90;;;;;;5083751;28;20279;-88
2022/10/27 06:34:03;;;;;;;12.20;4.10;;;9.50;99.90;;;;;;5080133;28;20184;-88
2022/10/27 06:37:26;;;;;;;7.82;3.85;;;9.50;99.90;;;;;;5079782;28;20225;-88
2022/10/27 06:40:10;;;;;;;7.97;3.58;;;9.40;99.90;;;;;;5089928;28;20239;-89
2022/10/27 06:42:49;;;;;;;7.65;3.88;;;9.30;99.90;;;;;;5079261;28;20272;-88
2022/10/27 06:45:50;;;;;;;7.65;3.60;;;9.40;99.90;;;;;;5080144;28;20213;-87
2022/10/27 06:49:02;;;;;;;6.38;3.55;;;9.60;99.90;;;;;;5087275;28;20279;-88
2022/10/27 06:51:33;;;;;;;6.60;3.13;;;9.60;99.90;;;;;;5099082;28;20268;-88
2022/10/27 06:57:25;;;;;;;8.75;3.50;;;9.50;99.90;;;;;;5101744;28;20207;-87
2022/10/27 07:06:40;;;;;;;12.25;4.18;;;10.10;99.90;;;;;;5098963;28;20698;-88
2022/10/27 07:13:02;;;;;;;10.35;3.40;;;10.20;99.90;;;;;;5084966;28;20165;-88
2022/10/27 07:22:29;;;;;;;9.07;4.00;;;10.70;99.90;;;;;;5091615;28;20215;-88
2022/10/27 07:28:18;;;;;;;9.30;3.78;;;10.90;99.90;;;;;;5102100;28;20214;-88
2022/10/27 07:31:03;;;;;;;10.02;3.60;;;11.10;99.90;;;;;;5120181;28;20706;-87
2022/10/27 07:33:51;;;;;;;11.93;3.67;;;11.30;99.90;;;;;;5122913;27;20217;-88
2022/10/27 07:36:31;;;;;;;6.10;3.60;;;11.40;99.90;;;;;;5118774;28;20658;-87
2022/10/27 07:39:05;;;;;;;10.15;4.03;;;11.60;99.90;;;;;;5109012;28;20283;-88
2022/10/27 07:41:33;;;;;;;7.53;3.30;;;11.70;99.90;;;;;;5110809;28;20286;-87
2022/10/27 07:44:27;;;;;;;8.27;3.80;;;11.70;99.90;;;;;;5114333;27;20286;-87
2022/10/27 07:47:30;;;;;;;13.35;3.90;;;11.70;99.90;;;;;;5117652;28;20271;-87
2022/10/27 07:50:05;;;;;;;10.63;3.67;;;11.70;99.90;;;;;;5118514;28;20227;-87
2022/10/27 07:55:59;;;;;;;10.02;3.55;;;11.90;99.90;;;;;;5128532;28;20171;-87
2022/10/27 08:01:48;;;;;;;7.13;3.30;;;12.20;99.90;;;;;;5108084;28;20206;-87
2022/10/27 08:11:17;;;;;;;9.15;2.60;;;12.80;98.40;;;;;;5115129;28;20210;-87
2022/10/27 08:14:27;;;;;;;10.52;3.22;;;13.00;97.50;;;;;;5121158;27;20271;-89
2022/10/27 08:17:15;;;;;;;8.98;3.00;;;13.30;97.30;;;;;;5112949;28;20196;-89
2022/10/27 08:19:51;;;;;;;8.05;3.05;;;13.50;97.30;;;;;;5112603;28;20231;-88
2022/10/27 08:22:54;;;;;;;21.33;5.13;;;13.60;97.30;;;;;;5117950;27;20223;-88
2022/10/27 08:25:21;;;;;;;5.93;3.20;;;13.80;95.70;;;;;;5108919;27;20286;-88
2022/10/27 08:28:05;;;;;;;4.80;2.95;;;14.10;95.10;;;;;;5114393;27;20292;-88
2022/10/27 08:30:51;;;;;;;9.45;3.10;;;14.50;94.30;;;;;;5130551;27;20194;-89
2022/10/27 08:33:22;;;;;;;11.02;3.17;;;15.10;93.70;;;;;;5115133;28;20287;-88
2022/10/27 08:35:50;;;;;;;8.48;2.67;;;15.70;91.60;;;;;;5122998;27;20223;-89
2022/10/27 08:38:21;;;;;;;6.68;2.80;;;16.40;88.90;;;;;;5113700;27;20192;-88
2022/10/27 08:41:17;;;;;;;7.82;3.10;;;17.00;81.40;;;;;;5117104;28;20264;-90
2022/10/27 08:44:06;;;;;;;8.90;3.28;;;17.70;70.80;;;;;;5111944;27;20223;-90
2022/10/27 08:47:12;;;;;;;7.05;3.00;;;17.70;66.30;;;;;;5115352;27;20246;-89
2022/10/27 08:49:42;;;;;;;10.52;3.00;;;17.90;64.10;;;;;;5109380;27;20690;-89
2022/10/27 08:52:22;;;;;;;6.47;2.53;;;18.20;54.90;;;;;;5086260;28;20288;-88
2022/10/27 08:54:53;;;;;;;4.97;2.63;;;18.10;57.30;;;;;;5109391;27;20718;-90
2022/10/27 08:57:25;;;;;;;9.20;2.78;;;19.30;51.50;;;;;;5109030;27;20224;-86
2022/10/27 08:59:54;;;;;;;4.03;2.85;;;20.20;40.70;;;;;;5111357;28;20547;-85
2022/10/27 09:02:49;;;;;;;7.18;2.50;;;21.00;38.90;;;;;;5112123;27;20636;-87
2022/10/27 09:05:27;;;;;;;4.80;2.42;;;22.40;34.10;;;;;;5106600;27;20281;-88
2022/10/27 09:08:00;;;;;;;6.43;2.42;;;23.80;26.90;;;;;;5109979;27;20244;-88
2022/10/27 09:10:43;;;;;;;5.32;2.47;;;24.20;26.80;;;;;;5116055;27;20205;-88
2022/10/27 09:13:21;;;;;;;9.55;2.70;;;24.80;24.30;;;;;;5107308;27;21457;-88
2022/10/27 09:15:51;;;;;;;4.57;2.40;;;24.80;21.90;;;;;;5112995;28;20290;-88
2022/10/27 09:18:26;;;;;;;6.95;2.80;;;25.90;19.50;;;;;;5122362;27;21009;-88
2022/10/27 09:20:55;;;;;;;8.07;2.42;;;26.20;18.40;;;;;;5101915;28;20231;-86
2022/10/27 09:23:27;;;;;;;90.40;81.40;;;25.10;18.60;;;;;;5113727;28;20195;-86
2022/10/27 09:25:56;;;;;;;5.65;2.70;;;24.70;22.20;;;;;;5111566;28;20309;-86
2022/10/27 09:28:29;;;;;;;9.30;2.40;;;24.40;21.00;;;;;;5116389;28;20278;-86
2022/10/27 09:30:58;;;;;;;5.13;2.55;;;24.90;21.00;;;;;;5111584;28;20291;-86
2022/10/27 09:33:29;;;;;;;4.13;2.45;;;25.10;19.60;;;;;;5110421;28;20213;-86
2022/10/27 09:35:56;;;;;;;8.95;2.60;;;25.90;18.30;;;;;;5124535;28;20214;-85
2022/10/27 09:38:28;;;;;;;4.53;2.38;;;25.90;17.90;;;;;;5116571;28;20290;-86
2022/10/27 09:40:55;;;;;;;6.78;2.78;;;26.30;17.10;;;;;;5103806;28;20199;-87
2022/10/27 09:43:23;;;;;;;6.85;2.38;;;26.50;15.70;;;;;;5108952;28;20294;-88
2022/10/27 09:46:02;;;;;;;6.43;2.90;;;25.10;17.80;;;;;;5114302;28;20278;-85
2022/10/27 09:48:28;;;;;;;6.97;2.60;;;25.40;17.90;;;;;;5104313;28;20259;-86
2022/10/27 09:51:00;;;;;;;5.75;2.42;;;23.80;20.10;;;;;;5122083;28;20191;-86
2022/10/27 09:53:40;;;;;;;4.07;2.30;;;24.40;20.70;;;;;;5125442;27;20718;-88
2022/10/27 09:56:09;;;;;;;10.65;2.67;;;25.00;18.30;;;;;;5122789;28;20722;-86
2022/10/27 09:58:56;;;;;;;6.00;2.40;;;25.30;18.00;;;;;;5117375;27;20255;-86
2022/10/27 10:01:26;;;;;;;9.75;2.80;;;25.20;18.30;;;;;;5123044;27;20223;-85
2022/10/27 10:04:04;;;;;;;4.15;2.67;;;24.70;18.60;;;;;;5126898;27;20542;-86
2022/10/27 10:06:35;;;;;;;4.85;2.38;;;25.10;17.70;;;;;;5130182;27;20241;-86
2022/10/27 10:09:25;;;;;;;4.90;2.30;;;24.50;18.70;;;;;;5120578;27;20275;-87
2022/10/27 10:11:56;;;;;;;4.45;2.38;;;24.70;18.70;;;;;;5123955;27;20254;-87
2022/10/27 10:14:24;;;;;;;6.53;2.20;;;25.00;18.90;;;;;;5118527;27;20241;-87
2022/10/27 10:16:54;;;;;;;5.85;3.00;;;25.60;17.20;;;;;;5127807;27;20202;-85
2022/10/27 10:19:23;;;;;;;5.82;2.55;;;25.60;17.10;;;;;;5111152;28;20877;-86
2022/10/27 10:21:53;;;;;;;6.95;2.28;;;25.30;18.10;;;;;;5117288;27;20282;-86
2022/10/27 10:24:23;;;;;;;4.82;2.67;;;25.30;18.60;;;;;;5120930;27;20260;-86
2022/10/27 10:26:53;;;;;;;5.57;2.80;;;24.90;19.70;;;;;;5120514;27;20222;-89
2022/10/27 10:29:28;;;;;;;4.70;2.40;;;24.60;20.40;;;;;;5117105;27;20561;-86
2022/10/27 10:32:10;;;;;;;9.38;2.63;;;24.60;20.00;;;;;;5115053;28;20256;-86
2022/10/27 10:34:38;;;;;;;4.63;2.15;;;24.40;19.00;;;;;;5111024;28;20208;-86
2022/10/27 10:37:29;;;;;;;6.70;2.60;;;24.80;18.70;;;;;;5112304;27;20211;-86
2022/10/27 10:40:10;;;;;;;8.32;2.45;;;25.10;19.00;;;;;;5112056;27;20210;-86
2022/10/27 10:42:37;;;;;;;4.35;2.10;;;25.10;19.20;;;;;;5110881;28;20639;-86
2022/10/27 10:45:18;;;;;;;4.43;2.30;;;24.60;20.40;;;;;;5113291;27;20238;-86
2022/10/27 10:47:51;;;;;;;7.75;2.60;;;25.10;17.80;;;;;;5112440;27;20219;-85
2022/10/27 10:50:17;;;;;;;7.18;2.38;;;25.30;17.30;;;;;;5116464;27;20195;-85
2022/10/27 10:52:49;;;;;;;3.97;2.22;;;25.20;17.70;;;;;;5111336;27;20260;-85
2022/10/27 10:55:26;;;;;;;5.07;2.33;;;24.40;18.30;;;;;;5117499;27;20282;-85
2022/10/27 10:57:58;;;;;;;3.63;2.25;;;24.00;20.00;;;;;;5107262;28;20294;-89
2022/10/27 11:00:26;;;;;;;6.95;2.70;;;23.40;21.10;;;;;;5112428;28;20286;-83
2022/10/27 11:02:58;;;;;;;5.03;2.30;;;23.10;22.20;;;;;;5120729;27;20540;-84
2022/10/27 11:05:29;;;;;;;6.60;2.40;;;22.50;23.50;;;;;;5102713;27;20299;-88
2022/10/27 11:07:56;;;;;;;10.82;2.58;;;22.00;24.60;;;;;;5120504;27;20231;-88
2022/10/27 11:10:26;;;;;;;5.15;2.40;;;21.80;28.60;;;;;;5118243;28;20263;-87
2022/10/27 11:13:01;;;;;;;4.80;2.10;;;21.60;28.70;;;;;;5125565;27;20638;-87
2022/10/27 11:15:32;;;;;;;4.97;2.33;;;21.50;27.90;;;;;;5124895;27;20264;-89
2022/10/27 11:18:10;;;;;;;5.40;2.08;;;21.50;27.00;;;;;;5124069;27;20271;-87
2022/10/27 11:20:37;;;;;;;6.15;2.05;;;21.40;26.80;;;;;;5125903;27;20267;-87
2022/10/27 11:23:11;;;;;;;6.80;2.25;;;21.50;26.40;;;;;;5116313;27;20278;-87
2022/10/27 11:25:38;;;;;;;5.03;2.25;;;21.60;26.00;;;;;;5118309;27;20204;-87
2022/10/27 11:28:15;;;;;;;3.88;1.98;;;21.60;25.80;;;;;;5119298;28;20249;-88
2022/10/27 11:30:48;;;;;;;18.13;2.85;;;21.70;26.00;;;;;;5113199;28;20244;-88
2022/10/27 11:33:24;;;;;;;13.13;2.72;;;21.60;26.40;;;;;;5113109;28;20300;-88
2022/10/27 11:36:18;;;;;;;6.75;2.20;;;21.50;26.70;;;;;;5115736;27;20201;-87
2022/10/27 11:38:56;;;;;;;8.13;2.60;;;21.10;27.70;;;;;;5117771;27;20203;-87
2022/10/27 11:41:31;;;;;;;9.48;2.35;;;21.10;28.20;;;;;;5120358;28;20238;-87
2022/10/27 11:44:05;;;;;;;7.70;3.05;;;21.20;28.60;;;;;;5116083;28;20290;-88
2022/10/27 11:46:40;;;;;;;10.32;6.32;;;21.10;28.60;;;;;;5118454;28;20306;-87
2022/10/27 11:49:14;;;;;;;6.25;2.05;;;21.20;28.30;;;;;;5119352;27;20198;-88
2022/10/27 11:51:47;;;;;;;4.47;2.25;;;21.20;28.00;;;;;;5094179;28;20206;-87
2022/10/27 11:54:16;;;;;;;5.22;2.10;;;21.40;28.40;;;;;;5112624;28;20215;-88
2022/10/27 11:56:57;;;;;;;8.13;2.45;;;21.40;27.50;;;;;;5119242;28;20287;-88
2022/10/27 11:59:34;;;;;;;5.97;2.10;;;21.30;28.00;;;;;;5115219;27;20205;-87
2022/10/27 12:02:25;;;;;;;5.43;2.10;;;21.30;28.00;;;;;;5114791;28;20235;-87
2022/10/27 12:05:00;;;;;;;4.78;1.95;;;21.30;27.90;;;;;;5111449;28;20606;-87
2022/10/27 12:07:40;;;;;;;6.60;2.08;;;21.30;27.90;;;;;;5113209;27;21162;-88
2022/10/27 12:10:21;;;;;;;3.95;2.17;;;21.10;28.70;;;;;;5119807;27;20205;-88
2022/10/27 12:13:02;;;;;;;8.38;2.10;;;20.90;29.50;;;;;;5118541;27;20234;-88
2022/10/27 12:15:40;;;;;;;4.63;2.15;;;20.70;29.00;;;;;;5118492;27;20713;-88
2022/10/27 12:18:14;;;;;;;4.93;2.47;;;20.80;29.10;;;;;;5114242;27;20291;-87
2022/10/27 12:20:45;;;;;;;6.30;2.40;;;20.90;29.70;;;;;;5106909;27;20188;-87
2022/10/27 12:23:17;;;;;;;8.13;2.45;;;21.20;29.00;;;;;;5114244;27;20195;-88
2022/10/27 12:25:52;;;;;;;11.23;2.50;;;21.10;29.40;;;;;;5096945;28;20200;-88
2022/10/27 12:28:25;;;;;;;4.65;2.03;;;21.10;29.40;;;;;;5094784;27;20219;-87
2022/10/27 12:31:00;;;;;;;6.93;2.65;;;21.10;30.00;;;;;;5112528;27;20299;-88
2022/10/27 12:33:34;;;;;;;7.80;2.42;;;21.10;29.60;;;;;;5120129;27;20229;-87
2022/10/27 12:36:14;;;;;;;6.78;2.22;;;21.20;29.70;;;;;;5113813;28;20279;-87
2022/10/27 12:38:51;;;;;;;4.95;2.25;;;21.30;28.60;;;;;;5114312;27;20223;-89
2022/10/27 12:41:27;;;;;;;5.28;2.20;;;21.30;28.70;;;;;;5114916;28;20196;-88
2022/10/27 12:43:59;;;;;;;7.90;2.35;;;21.30;29.40;;;;;;5118224;27;20210;-87
2022/10/27 12:46:48;;;;;;;14.50;2.40;;;21.30;30.00;;;;;;5117637;28;20263;-87
2022/10/27 12:49:25;;;;;;;6.20;2.35;;;21.10;30.40;;;;;;5118536;28;20224;-86
2022/10/27 12:55:19;;;;;;;5.65;2.40;;;20.90;30.40;;;;;;5121489;27;20207;-88
2022/10/27 12:57:59;;;;;;;15.60;3.22;;;21.00;30.90;;;;;;5122361;27;20206;-88
2022/10/27 13:00:45;;;;;;;5.57;2.25;;;21.10;33.00;;;;;;5111720;27;20254;-87
2022/10/27 13:03:51;;;;;;;6.25;1.92;;;21.00;32.90;;;;;;5118605;28;20299;-87
2022/10/27 13:06:53;;;;;;;5.32;2.50;;;20.90;32.80;;;;;;5116943;28;20219;-87
2022/10/27 13:10:02;;;;;;;5.97;2.20;;;20.80;31.40;;;;;;5129949;27;20225;-88
2022/10/27 13:12:49;;;;;;;5.63;1.90;;;20.90;32.80;;;;;;5114410;27;20200;-86
2022/10/27 13:15:39;;;;;;;6.28;2.00;;;20.90;32.80;;;;;;5118556;27;20676;-89
2022/10/27 13:18:20;;;;;;;4.30;2.15;;;21.00;32.90;;;;;;5115559;27;20243;-87
2022/10/27 13:20:57;;;;;;;5.15;2.30;;;21.10;32.90;;;;;;5114414;27;20287;-87
2022/10/27 13:23:33;;;;;;;3.58;2.20;;;21.20;32.90;;;;;;5110087;28;20273;-87
2022/10/27 13:26:18;;;;;;;4.90;2.08;;;21.10;33.00;;;;;;5112041;28;20190;-87
2022/10/27 13:28:56;;;;;;;7.72;2.17;;;20.90;32.80;;;;;;5128521;28;20244;-87
2022/10/27 13:31:28;;;;;;;6.82;2.30;;;20.80;32.70;;;;;;5116564;28;20266;-87
2022/10/27 13:34:16;;;;;;;7.30;2.20;;;20.80;32.70;;;;;;5127075;28;20207;-87
2022/10/27 13:36:43;;;;;;;3.90;2.00;;;20.70;32.60;;;;;;5114941;28;20197;-87
2022/10/27 13:39:42;;;;;;;6.95;2.17;;;20.80;32.70;;;;;;5117141;28;20223;-87
2022/10/27 13:42:18;;;;;;;5.28;2.25;;;20.90;32.80;;;;;;5107261;28;20238;-87
2022/10/27 13:44:46;;;;;;;5.82;2.20;;;21.10;33.00;;;;;;5111844;28;20283;-87
2022/10/27 13:47:18;;;;;;;4.53;2.33;;;20.90;32.80;;;;;;5113434;28;20269;-88
2022/10/27 13:50:00;;;;;;;4.57;2.25;;;20.80;33.80;;;;;;5112311;28;20287;-87
2022/10/27 13:52:33;;;;;;;6.15;2.00;;;20.70;34.90;;;;;;5107215;28;20196;-90
2022/10/27 13:55:36;;;;;;;7.15;2.00;;;20.70;36.30;;;;;;5115984;28;20268;-90
2022/10/27 13:58:49;;;;;;;7.82;2.30;;;20.70;36.60;;;;;;5109502;28;20235;-88
2022/10/27 14:01:33;;;;;;;6.43;1.95;;;20.60;37.20;;;;;;5124722;28;20609;-87
2022/10/27 14:04:38;;;;;;;5.45;2.00;;;20.60;39.20;;;;;;5117755;28;20219;-87
2022/10/27 14:07:12;;;;;;;7.00;2.35;;;20.70;40.00;;;;;;5106465;28;20223;-87
2022/10/27 14:09:44;;;;;;;3.85;2.22;;;20.70;39.30;;;;;;5108775;28;20275;-88
2022/10/27 14:12:17;;;;;;;4.78;2.33;;;20.70;38.70;;;;;;5112002;28;20207;-87
2022/10/27 14:15:05;;;;;;;5.90;2.00;;;20.70;38.90;;;;;;5120006;28;20227;-86
2022/10/27 14:17:52;;;;;;;6.68;2.00;;;20.60;38.70;;;;;;5116169;28;20223;-87
2022/10/27 14:20:27;;;;;;;10.75;2.63;;;20.50;38.20;;;;;;5111123;28;20235;-87
2022/10/27 14:23:06;;;;;;;4.38;2.00;;;20.50;37.00;;;;;;5109050;28;20207;-87
2022/10/27 14:25:33;;;;;;;9.55;2.45;;;20.40;38.10;;;;;;5108996;28;20226;-87
2022/10/27 14:28:04;;;;;;;5.78;2.05;;;20.40;36.40;;;;;;5103802;28;20255;-87
2022/10/27 14:30:33;;;;;;;8.02;2.00;;;20.20;36.80;;;;;;5121720;28;20263;-89
2022/10/27 14:33:16;;;;;;;93.38;73.47;;;20.10;37.30;;;;;;5112395;28;20196;-91
2022/10/27 14:36:05;;;;;;;6.80;2.33;;;20.10;37.60;;;;;;5112400;28;20204;-90
2022/10/27 14:38:34;;;;;;;6.30;2.22;;;20.10;37.50;;;;;;5113251;28;20228;-90
2022/10/27 14:41:18;;;;;;;10.32;2.15;;;20.00;37.80;;;;;;5120035;27;20271;-89
2022/10/27 14:43:47;;;;;;;7.28;2.10;;;20.00;37.50;;;;;;5108652;27;20200;-88
2022/10/27 14:46:20;;;;;;;6.47;2.17;;;19.90;38.40;;;;;;5109835;27;20646;-91
2022/10/27 14:48:56;;;;;;;3.25;2.05;;;19.90;38.70;;;;;;5103322;27;20228;-89
2022/10/27 14:51:23;;;;;;;4.63;2.38;;;19.90;38.80;;;;;;5109657;27;20223;-88
2022/10/27 14:53:53;;;;;;;5.78;2.53;;;19.80;39.70;;;;;;5105552;27;20199;-88
2022/10/27 14:56:24;;;;;;;4.93;2.20;;;19.80;40.50;;;;;;5110991;28;20742;-89
2022/10/27 14:58:56;;;;;;;7.60;2.10;;;19.70;41.70;;;;;;5114169;27;20298;-91
2022/10/27 15:01:34;;;;;;;3.78;2.17;;;19.60;43.50;;;;;;5111922;28;20208;-90
2022/10/27 15:04:20;;;;;;;3.13;2.10;;;19.50;45.60;;;;;;5109814;28;20307;-93
2022/10/27 15:06:49;;;;;;;7.50;2.22;;;19.40;47.70;;;;;;5109841;28;20192;-91
2022/10/27 15:09:27;;;;;;;5.85;2.80;;;19.30;48.50;;;;;;5109115;28;20228;-88
2022/10/27 15:11:54;;;;;;;8.93;2.50;;;19.20;51.10;;;;;;5106424;28;20210;-91
2022/10/27 15:14:21;;;;;;;4.45;2.60;;;19.10;52.70;;;;;;5099341;28;20222;-90
2022/10/27 15:16:50;;;;;;;6.30;2.30;;;19.00;54.90;;;;;;5119182;27;20299;-91
2022/10/27 15:19:18;;;;;;;7.95;2.63;;;19.00;55.00;;;;;;5097238;28;20207;-90
2022/10/27 15:21:46;;;;;;;9.63;2.80;;;18.90;55.80;;;;;;5113280;27;20203;-91
2022/10/27 15:24:23;;;;;;;4.55;2.60;;;18.90;57.80;;;;;;5111329;28;20199;-90
2022/10/27 15:27:09;;;;;;;4.85;2.45;;;18.80;59.40;;;;;;5114660;27;20285;-89
2022/10/27 15:29:38;;;;;;;6.55;2.60;;;18.80;60.90;;;;;;5109446;27;20290;-90
2022/10/27 15:32:31;;;;;;;7.13;2.33;;;18.60;62.40;;;;;;5115374;27;20614;-89
2022/10/27 15:34:58;;;;;;;4.95;2.50;;;18.60;64.10;;;;;;5112337;27;20281;-90
2022/10/27 15:37:32;;;;;;;8.60;2.50;;;18.50;66.10;;;;;;5105898;28;20196;-91
2022/10/27 15:40:21;;;;;;;5.55;2.55;;;18.40;67.80;;;;;;5105265;27;20208;-90
2022/10/27 15:46:17;;;;;;;6.75;3.03;;;18.20;71.20;;;;;;5115682;27;20206;-89
2022/10/27 15:52:21;;;;;;;5.05;2.70;;;17.90;75.80;;;;;;5129484;27;20186;-89
2022/10/27 15:54:58;;;;;;;6.45;2.40;;;17.80;77.70;;;;;;5110608;28;20662;-88
2022/10/27 16:01:27;;;;;;;5.45;2.53;;;17.50;79.00;;;;;;5119411;27;20194;-88
2022/10/27 16:11:17;;;;;;;7.97;3.40;;;16.90;86.10;;;;;;5119004;27;20716;-88
2022/10/27 16:14:12;;;;;;;8.68;4.13;;;16.80;89.00;;;;;;5091585;28;20200;-88
2022/10/27 16:17:34;;;;;;;8.43;3.28;;;16.70;90.40;;;;;;5106684;27;20291;-88
2022/10/27 16:24:05;;;;;;;10.18;4.13;;;16.40;91.80;;;;;;5107367;27;20661;-88
2022/10/27 16:26:36;;;;;;;9.90;4.15;;;16.20;91.70;;;;;;5120973;28;20692;-91
2022/10/27 16:36:27;;;;;;;7.82;3.72;;;16.10;93.10;;;;;;5101613;28;20194;-89
2022/10/27 16:39:40;;;;;;;6.93;3.58;;;16.10;92.80;;;;;;5098396;28;20276;-91
2022/10/27 16:42:26;;;;;;;10.70;4.13;;;16.00;92.90;;;;;;5107599;28;20634;-87
2022/10/27 16:45:15;;;;;;;7.38;4.15;;;15.90;93.60;;;;;;5090958;28;20204;-89
2022/10/27 16:48:03;;;;;;;8.48;3.38;;;15.80;94.30;;;;;;5106706;28;20271;-88
2022/10/27 16:50:46;;;;;;;8.38;3.97;;;15.70;94.70;;;;;;5121785;28;20235;-88
2022/10/27 16:53:23;;;;;;;13.68;4.43;;;15.60;94.90;;;;;;5119071;27;20216;-89
2022/10/27 16:56:45;;;;;;;12.40;4.45;;;15.50;95.80;;;;;;5117786;28;20264;-87
2022/10/27 17:03:15;;;;;;;9.60;3.78;;;15.30;95.60;;;;;;5109092;28;20209;-87
2022/10/27 17:06:20;;;;;;;7.75;4.22;;;15.20;96.20;;;;;;5114103;27;20284;-90
2022/10/27 17:09:30;;;;;;;16.30;5.88;;;15.20;95.90;;;;;;5071243;28;20264;-89
2022/10/27 17:11:57;;;;;;;12.48;5.47;;;15.20;96.50;;;;;;5063838;28;20261;-90
2022/10/27 17:17:53;;;;;;;7.57;4.07;;;15.10;96.10;;;;;;5052377;28;20180;-90
2022/10/27 17:24:33;;;;;;;12.52;4.72;;;15.10;96.40;;;;;;5073842;28;20562;-89
2022/10/27 17:40:10;;;;;;;44.95;32.78;;;14.70;96.80;;;;;;5065820;28;20208;-91
2022/10/27 17:42:40;;;;;;;98.85;74.43;;;14.60;96.80;;;;;;5070449;28;20193;-91
2022/10/27 17:45:10;;;;;;;26.02;17.77;;;14.60;96.80;;;;;;5075473;28;20216;-90
2022/10/27 17:47:37;;;;;;;18.27;10.27;;;14.60;96.80;;;;;;5072748;28;20276;-91
2022/10/27 17:50:27;;;;;;;24.02;15.85;;;14.50;96.80;;;;;;5069950;28;20289;-91
2022/10/27 17:52:59;;;;;;;18.77;11.45;;;14.50;96.80;;;;;;5071227;28;20288;-91
2022/10/27 17:55:26;;;;;;;26.08;12.95;;;14.50;96.80;;;;;;5068325;28;20197;-91
2022/10/27 17:58:16;;;;;;;13.13;7.38;;;14.50;96.80;;;;;;5073238;28;20268;-91
2022/10/27 18:01:21;;;;;;;14.40;7.97;;;14.40;96.80;;;;;;5068021;28;20238;-91
2022/10/27 18:06:52;;;;;;;13.35;7.85;;;14.20;97.30;;;;;;5067673;28;20197;-91
2022/10/27 18:09:20;;;;;;;13.02;7.45;;;14.10;97.70;;;;;;5070959;28;20212;-91
2022/10/27 18:11:47;;;;;;;8.70;5.40;;;14.10;98.00;;;;;;5099912;28;20275;-92
2022/10/27 18:14:22;;;;;;;15.57;9.98;;;14.00;97.90;;;;;;5111846;28;20283;-92
2022/10/27 18:16:49;;;;;;;17.35;10.38;;;14.00;98.10;;;;;;5113856;27;20196;-91
2022/10/27 18:19:22;;;;;;;13.40;6.45;;;14.10;98.10;;;;;;5112029;27;20467;-90
2022/10/27 18:21:49;;;;;;;13.02;6.63;;;14.10;97.90;;;;;;5112944;27;20276;-92
2022/10/27 18:24:23;;;;;;;13.70;6.97;;;14.10;97.70;;;;;;5106306;27;20192;-91
2022/10/27 18:27:09;;;;;;;12.73;6.10;;;14.10;97.60;;;;;;5122083;27;20561;-91
2022/10/27 18:29:52;;;;;;;10.90;7.20;;;14.10;97.60;;;;;;5110029;28;20303;-91
2022/10/27 18:32:21;;;;;;;9.15;5.90;;;14.10;97.80;;;;;;5089886;28;20259;-91
2022/10/27 18:34:48;;;;;;;9.70;6.18;;;14.00;97.60;;;;;;5115986;28;20264;-91
2022/10/27 18:43:21;;;;;;;8.73;4.95;;;13.90;98.10;;;;;;5055262;28;20206;-91
2022/10/27 18:45:52;;;;;;;12.68;6.40;;;13.90;98.00;;;;;;5059460;28;20225;-91
2022/10/27 18:48:33;;;;;;;12.32;5.38;;;13.90;98.40;;;;;;5059563;28;20339;-92
2022/10/27 18:51:28;;;;;;;12.75;7.07;;;13.90;98.20;;;;;;5048476;28;20237;-91
2022/10/27 18:54:39;;;;;;;13.52;7.00;;;13.80;98.50;;;;;;5051000;28;20292;-90
2022/10/27 19:01:03;;;;;;;9.30;5.70;;;13.70;98.10;;;;;;5112056;28;20218;-89
2022/10/27 19:04:06;;;;;;;9.68;5.63;;;13.70;98.50;;;;;;5111816;27;20199;-89
2022/10/27 19:06:46;;;;;;;11.80;6.13;;;13.70;98.50;;;;;;5116635;28;20675;-90
2022/10/27 19:09:16;;;;;;;9.25;6.00;;;13.70;98.90;;;;;;5108793;28;20217;-90
2022/10/27 19:12:03;;;;;;;13.90;8.15;;;13.60;98.70;;;;;;5121945;28;20212;-91
2022/10/27 19:15:03;;;;;;;13.50;8.45;;;13.60;98.50;;;;;;5117934;28;20231;-91
2022/10/27 19:17:59;;;;;;;15.80;8.60;;;13.60;98.90;;;;;;5128979;27;20230;-90
2022/10/27 19:24:15;;;;;;;8.45;4.30;;;13.40;98.80;;;;;;5115034;27;20164;-89
2022/10/27 20:01:17;;;;;;;7.72;3.47;;;13.10;99.00;;;;;;5130670;28;20170;-89
2022/10/27 20:07:08;;;;;;;7.20;3.70;;;13.10;99.70;;;;;;5130780;28;20206;-89
2022/10/27 20:10:21;;;;;;;9.00;3.80;;;13.10;99.70;;;;;;5126499;28;20243;-89
2022/10/27 20:19:36;;;;;;;7.05;3.97;;;13.10;99.00;;;;;;5110325;28;20218;-88
2022/10/27 20:22:30;;;;;;;11.60;3.30;;;13.10;99.30;;;;;;5113045;28;20200;-89
2022/10/27 20:32:31;;;;;;;7.38;3.33;;;12.80;99.90;;;;;;5114532;28;20229;-89
2022/10/27 20:38:51;;;;;;;6.40;2.78;;;12.90;99.60;;;;;;5113659;28;20184;-88
2022/10/27 20:45:45;;;;;;;5.07;2.72;;;12.90;99.50;;;;;;5074273;28;20193;-89
2022/10/27 22:31:57;;;;;;;6.88;3.10;;;11.90;98.80;;;;;;5131102;27;20198;-90
2022/10/27 22:35:15;;;;;;;5.75;2.88;;;11.80;99.30;;;;;;5127531;28;20291;-89
2022/10/27 22:38:27;;;;;;;4.97;2.70;;;11.80;99.40;;;;;;5128788;28;20546;-89
2022/10/27 22:44:35;;;;;;;5.72;2.60;;;11.90;99.30;;;;;;5111046;28;20229;-89
2022/10/27 22:50:36;;;;;;;3.50;2.50;;;11.80;99.70;;;;;;5126301;28;20715;-89
2022/10/27 22:53:16;;;;;;;5.65;2.65;;;11.90;98.80;;;;;;5130568;27;20251;-90
2022/10/27 23:05:51;;;;;;;5.75;2.97;;;11.60;99.50;;;;;;5121033;28;20269;-89
2022/10/27 23:08:19;;;;;;;4.68;2.78;;;11.60;99.90;;;;;;5135813;27;20214;-89
2022/10/27 23:17:36;;;;;;;4.47;3.10;;;11.60;99.90;;;;;;5127438;28;20679;-90
2022/10/27 23:30:28;;;;;;;6.13;3.22;;;11.50;99.90;;;;;;5086751;28;20225;-90
2022/10/27 23:36:57;;;;;;;7.07;2.80;;;11.60;99.90;;;;;;5083721;28;20175;-89
2022/10/27 23:40:09;;;;;;;5.80;2.35;;;11.60;99.90;;;;;;5071963;28;20196;-89
2022/10/27 23:49:35;;;;;;;4.93;2.60;;;11.40;99.90;;;;;;5097368;28;20227;-90
2022/10/27 23:55:24;;;;;;;5.18;2.70;;;11.20;99.90;;;;;;5094280;28;20307;-90
